Sakura — JG5711 — position and weather

sailwx.info

Track history (hours):
 
Tides and Currents Weather Stations Pressure Air Temp Water Temp Dewpoint Dewpoint Depression Visibility Wind Speed Wind Dir Waves Ship Positions

Sakura

Last reported at 2016-Jul-26 13:34 UTC. Time now 2016-Jul-26 14:07 UTC.
Position N 35°27' E 139°40'.

Length 32 m; draft 3.6 m.

Type: Tug. MMSI: 431101178.

Date/timePositionNaut miles runAvg speedWind from/ knotsBaromVisibWave heightAir tempDewpointWater temp
2016-Jul-26 13:34N 35°27' E 139°40'0 0.0
2016-Jul-26 12:33N 35°27' E 139°40'1 1.1
2016-Jul-26 11:34N 35°26' E 139°41'1 1.2
2016-Jul-26 10:34N 35°28' E 139°41'0 0.0
2016-Jul-26 09:34N 35°28' E 139°41'1 0.7
2016-Jul-26 08:34N 35°27' E 139°40'1 0.6
2016-Jul-26 07:34N 35°27' E 139°40'0 0.0
2016-Jul-26 06:33N 35°27' E 139°40'1 1.2
2016-Jul-26 05:34N 35°26' E 139°41'1 1.5
2016-Jul-26 04:33N 35°27' E 139°39'5 5.4
2016-Jul-26 03:33N 35°30' E 139°45'2 2.3
2016-Jul-26 02:33N 35°29' E 139°42'2 1.9
2016-Jul-26 01:33N 35°27' E 139°42'0 0.0
2016-Jul-26 00:33N 35°27' E 139°42'0 0.0
2016-Jul-25 23:33N 35°27' E 139°42'4 4.1
2016-Jul-25 22:33N 35°23' E 139°41'4 3.6
2016-Jul-25 21:33N 35°27' E 139°40'1 0.1
2016-Jul-25 08:34N 35°27' E 139°41'6 5.9
2016-Jul-25 07:34N 35°31' E 139°46'7 6.7
2016-Jul-25 06:34N 35°27' E 139°40'0 0.0
2016-Jul-25 05:33N 35°27' E 139°40'0 0.0
2016-Jul-25 04:34N 35°27' E 139°40'0 0.0
2016-Jul-25 03:33N 35°27' E 139°40'0 0.0
2016-Jul-25 02:34N 35°27' E 139°40'0 0.0
2016-Jul-25 01:34N 35°27' E 139°40'0 0.0
2016-Jul-25 00:34N 35°27' E 139°40'0 0.0
2016-Jul-24 23:34N 35°27' E 139°40'6 5.7
2016-Jul-24 22:34N 35°31' E 139°45'3 3.2
2016-Jul-24 21:34N 35°29' E 139°42'2 2.3
2016-Jul-24 20:33N 35°27' E 139°40'0 0.0
2016-Jul-24 08:31N 35°27' E 139°40'2 1.9
2016-Jul-24 07:33N 35°27' E 139°42'4 4.0
2016-Jul-24 06:33N 35°29' E 139°45'1 1.0
2016-Jul-24 05:33N 35°28' E 139°45'0 0.0
2016-Jul-24 04:33N 35°28' E 139°45'0 0.0
2016-Jul-24 03:33N 35°28' E 139°45'1010.3
2016-Jul-24 02:33N 35°30' E 139°58'4 3.8
2016-Jul-24 01:33N 35°31' E 140°02'2 1.6
2016-Jul-24 00:33N 35°31' E 140°00'2 1.7
2016-Jul-23 23:33N 35°31' E 139°58'1211.6
2016-Jul-23 22:33N 35°27' E 139°45'4 0.1
2016-Jul-22 07:09N 35°27' E 139°40'0 0.0
2016-Jul-22 05:33N 35°27' E 139°40'0 0.0
2016-Jul-22 04:33N 35°27' E 139°40'0 0.0
2016-Jul-22 03:33N 35°27' E 139°40'0 0.0
2016-Jul-22 02:33N 35°27' E 139°40'0 0.0
2016-Jul-22 01:33N 35°27' E 139°40'0 0.0
2016-Jul-22 00:33N 35°27' E 139°40'3 2.9
2016-Jul-21 23:33N 35°29' E 139°42'2 2.2
2016-Jul-21 22:33N 35°30' E 139°44'2 2.2
2016-Jul-21 21:33N 35°28' E 139°44'4 4.2
2016-Jul-21 20:33N 35°27' E 139°39'0 0.0
2016-Jul-21 07:34N 35°28' E 139°39'0 0.5
2016-Jul-21 06:33N 35°27' E 139°39'2 1.8
2016-Jul-21 05:33N 35°27' E 139°41'2 1.8
2016-Jul-21 04:33N 35°27' E 139°39'0 0.0
2016-Jul-21 03:33N 35°27' E 139°39'0 0.0
2016-Jul-21 02:33N 35°27' E 139°39'0 0.0
2016-Jul-21 01:33N 35°27' E 139°39'0 0.0
2016-Jul-21 00:33N 35°27' E 139°39'0 0.0
2016-Jul-20 23:33N 35°27' E 139°39'0 0.0
2016-Jul-20 06:09N 35°27' E 139°39'0 0.0
2016-Jul-20 05:33N 35°27' E 139°39'0 0.0
2016-Jul-20 04:33N 35°27' E 139°39'0 0.0
2016-Jul-20 03:33N 35°27' E 139°39'0 0.0
2016-Jul-20 02:33N 35°27' E 139°39'0 0.0
2016-Jul-20 01:33N 35°27' E 139°39'0 0.0
2016-Jul-20 00:33N 35°27' E 139°39'4 3.9
2016-Jul-19 23:33N 35°29' E 139°43'3 2.9
2016-Jul-19 22:34N 35°31' E 139°46'5 4.6
2016-Jul-19 21:33N 35°27' E 139°43'3 3.5
2016-Jul-19 20:34N 35°27' E 139°39'4 0.4
2016-Jul-19 10:33N 35°28' E 139°44'2 2.1
2016-Jul-19 09:33N 35°30' E 139°43'3 2.6
2016-Jul-19 08:33N 35°27' E 139°42'0 0.3
2016-Jul-19 07:33N 35°27' E 139°42'5 1.5
2016-Jul-19 04:33N 35°24' E 139°38'1 1.3
2016-Jul-19 03:33N 35°23' E 139°40'0 0.0
2016-Jul-19 02:33N 35°23' E 139°40'0 0.0
2016-Jul-19 01:33N 35°23' E 139°40'0 0.0
2016-Jul-19 00:34N 35°23' E 139°40'1 1.3
2016-Jul-18 23:33N 35°25' E 139°39'3 2.6
2016-Jul-18 22:33N 35°25' E 139°42'4 3.6
2016-Jul-18 21:33N 35°27' E 139°39'0 0.0
2016-Jul-17 22:32N 35°27' E 139°39'6 6.5
2016-Jul-17 21:33N 35°30' E 139°46'1 1.1
2016-Jul-17 20:34N 35°29' E 139°45'5 4.6
2016-Jul-17 19:33N 35°28' E 139°39'1 1.2
2016-Jul-17 18:33N 35°27' E 139°39'0 0.0
2016-Jul-17 17:33N 35°27' E 139°39'0 0.0
2016-Jul-17 16:33N 35°27' E 139°39'0 0.0
2016-Jul-17 15:33N 35°27' E 139°39'0 0.0
2016-Jul-17 14:33N 35°27' E 139°39'0 0.4
2016-Jul-17 13:34N 35°27' E 139°39'2 2.1
2016-Jul-17 12:33N 35°27' E 139°41'1 1.2
2016-Jul-17 11:34N 35°26' E 139°42'0 0.0
2016-Jul-17 10:33N 35°26' E 139°42'2 2.2
2016-Jul-17 09:33N 35°24' E 139°40'1 0.5
2016-Jul-17 08:33N 35°24' E 139°41'1 0.8
2016-Jul-17 07:33N 35°24' E 139°42'4 4.1
2016-Jul-17 06:33N 35°27' E 139°39'0 0.0
2016-Jul-17 04:33N 35°27' E 139°39'0 0.0
2016-Jul-17 03:33N 35°27' E 139°39'4 3.8
2016-Jul-17 02:33N 35°28' E 139°43'2 1.8
2016-Jul-17 01:33N 35°27' E 139°41'2 2.1
2016-Jul-17 00:33N 35°27' E 139°39'  
Track history (hours):
 
Tides and Currents Weather Stations Pressure Air Temp Water Temp Dewpoint Dewpoint Depression Visibility Wind Speed Wind Dir Waves Ship Positions

Sakura

Last reported at 2016-Jul-26 13:34 UTC. Time now 2016-Jul-26 14:07 UTC.
Position N 35°27' E 139°40'.

Length 32 m; draft 3.6 m.

Type: Tug. MMSI: 431101178.

Date/timePositionNaut miles runAvg speedWind from/ knotsBaromVisibWave heightAir tempDewpointWater temp
2016-Jul-26 13:34N 35°27' E 139°40'0 0.0
2016-Jul-26 12:33N 35°27' E 139°40'1 1.1
2016-Jul-26 11:34N 35°26' E 139°41'1 1.2
2016-Jul-26 10:34N 35°28' E 139°41'0 0.0
2016-Jul-26 09:34N 35°28' E 139°41'1 0.7
2016-Jul-26 08:34N 35°27' E 139°40'1 0.6
2016-Jul-26 07:34N 35°27' E 139°40'0 0.0
2016-Jul-26 06:33N 35°27' E 139°40'1 1.2
2016-Jul-26 05:34N 35°26' E 139°41'1 1.5
2016-Jul-26 04:33N 35°27' E 139°39'5 5.4
2016-Jul-26 03:33N 35°30' E 139°45'2 2.3
2016-Jul-26 02:33N 35°29' E 139°42'2 1.9
2016-Jul-26 01:33N 35°27' E 139°42'0 0.0
2016-Jul-26 00:33N 35°27' E 139°42'0 0.0
2016-Jul-25 23:33N 35°27' E 139°42'4 4.1
2016-Jul-25 22:33N 35°23' E 139°41'4 3.6
2016-Jul-25 21:33N 35°27' E 139°40'1 0.1
2016-Jul-25 08:34N 35°27' E 139°41'6 5.9
2016-Jul-25 07:34N 35°31' E 139°46'7 6.7
2016-Jul-25 06:34N 35°27' E 139°40'0 0.0
2016-Jul-25 05:33N 35°27' E 139°40'0 0.0
2016-Jul-25 04:34N 35°27' E 139°40'0 0.0
2016-Jul-25 03:33N 35°27' E 139°40'0 0.0
2016-Jul-25 02:34N 35°27' E 139°40'0 0.0
2016-Jul-25 01:34N 35°27' E 139°40'0 0.0
2016-Jul-25 00:34N 35°27' E 139°40'0 0.0
2016-Jul-24 23:34N 35°27' E 139°40'6 5.7
2016-Jul-24 22:34N 35°31' E 139°45'3 3.2
2016-Jul-24 21:34N 35°29' E 139°42'2 2.3
2016-Jul-24 20:33N 35°27' E 139°40'0 0.0
2016-Jul-24 08:31N 35°27' E 139°40'2 1.9
2016-Jul-24 07:33N 35°27' E 139°42'4 4.0
2016-Jul-24 06:33N 35°29' E 139°45'1 1.0
2016-Jul-24 05:33N 35°28' E 139°45'0 0.0
2016-Jul-24 04:33N 35°28' E 139°45'0 0.0
2016-Jul-24 03:33N 35°28' E 139°45'1010.3
2016-Jul-24 02:33N 35°30' E 139°58'4 3.8
2016-Jul-24 01:33N 35°31' E 140°02'2 1.6
2016-Jul-24 00:33N 35°31' E 140°00'2 1.7
2016-Jul-23 23:33N 35°31' E 139°58'1211.6
2016-Jul-23 22:33N 35°27' E 139°45'4 0.1
2016-Jul-22 07:09N 35°27' E 139°40'0 0.0
2016-Jul-22 05:33N 35°27' E 139°40'0 0.0
2016-Jul-22 04:33N 35°27' E 139°40'0 0.0
2016-Jul-22 03:33N 35°27' E 139°40'0 0.0
2016-Jul-22 02:33N 35°27' E 139°40'0 0.0
2016-Jul-22 01:33N 35°27' E 139°40'0 0.0
2016-Jul-22 00:33N 35°27' E 139°40'3 2.9
2016-Jul-21 23:33N 35°29' E 139°42'2 2.2
2016-Jul-21 22:33N 35°30' E 139°44'2 2.2
2016-Jul-21 21:33N 35°28' E 139°44'4 4.2
2016-Jul-21 20:33N 35°27' E 139°39'0 0.0
2016-Jul-21 07:34N 35°28' E 139°39'0 0.5
2016-Jul-21 06:33N 35°27' E 139°39'2 1.8
2016-Jul-21 05:33N 35°27' E 139°41'2 1.8
2016-Jul-21 04:33N 35°27' E 139°39'0 0.0
2016-Jul-21 03:33N 35°27' E 139°39'0 0.0
2016-Jul-21 02:33N 35°27' E 139°39'0 0.0
2016-Jul-21 01:33N 35°27' E 139°39'0 0.0
2016-Jul-21 00:33N 35°27' E 139°39'0 0.0
2016-Jul-20 23:33N 35°27' E 139°39'0 0.0
2016-Jul-20 06:09N 35°27' E 139°39'0 0.0
2016-Jul-20 05:33N 35°27' E 139°39'0 0.0
2016-Jul-20 04:33N 35°27' E 139°39'0 0.0
2016-Jul-20 03:33N 35°27' E 139°39'0 0.0
2016-Jul-20 02:33N 35°27' E 139°39'0 0.0
2016-Jul-20 01:33N 35°27' E 139°39'0 0.0
2016-Jul-20 00:33N 35°27' E 139°39'4 3.9
2016-Jul-19 23:33N 35°29' E 139°43'3 2.9
2016-Jul-19 22:34N 35°31' E 139°46'5 4.6
2016-Jul-19 21:33N 35°27' E 139°43'3 3.5
2016-Jul-19 20:34N 35°27' E 139°39'4 0.4
2016-Jul-19 10:33N 35°28' E 139°44'2 2.1
2016-Jul-19 09:33N 35°30' E 139°43'3 2.6
2016-Jul-19 08:33N 35°27' E 139°42'0 0.3
2016-Jul-19 07:33N 35°27' E 139°42'5 1.5
2016-Jul-19 04:33N 35°24' E 139°38'1 1.3
2016-Jul-19 03:33N 35°23' E 139°40'0 0.0
2016-Jul-19 02:33N 35°23' E 139°40'0 0.0
2016-Jul-19 01:33N 35°23' E 139°40'0 0.0
2016-Jul-19 00:34N 35°23' E 139°40'1 1.3
2016-Jul-18 23:33N 35°25' E 139°39'3 2.6
2016-Jul-18 22:33N 35°25' E 139°42'4 3.6
2016-Jul-18 21:33N 35°27' E 139°39'0 0.0
2016-Jul-17 22:32N 35°27' E 139°39'6 6.5
2016-Jul-17 21:33N 35°30' E 139°46'1 1.1
2016-Jul-17 20:34N 35°29' E 139°45'5 4.6
2016-Jul-17 19:33N 35°28' E 139°39'1 1.2
2016-Jul-17 18:33N 35°27' E 139°39'0 0.0
2016-Jul-17 17:33N 35°27' E 139°39'0 0.0
2016-Jul-17 16:33N 35°27' E 139°39'0 0.0
2016-Jul-17 15:33N 35°27' E 139°39'0 0.0
2016-Jul-17 14:33N 35°27' E 139°39'0 0.4
2016-Jul-17 13:34N 35°27' E 139°39'2 2.1
2016-Jul-17 12:33N 35°27' E 139°41'1 1.2
2016-Jul-17 11:34N 35°26' E 139°42'0 0.0
2016-Jul-17 10:33N 35°26' E 139°42'2 2.2
2016-Jul-17 09:33N 35°24' E 139°40'1 0.5
2016-Jul-17 08:33N 35°24' E 139°41'1 0.8
2016-Jul-17 07:33N 35°24' E 139°42'4 4.1
2016-Jul-17 06:33N 35°27' E 139°39'0 0.0
2016-Jul-17 04:33N 35°27' E 139°39'0 0.0
2016-Jul-17 03:33N 35°27' E 139°39'4 3.8
2016-Jul-17 02:33N 35°28' E 139°43'2 1.8
2016-Jul-17 01:33N 35°27' E 139°41'2 2.1
2016-Jul-17 00:33N 35°27' E 139°39'  

Dump ship's entire track history